sensor_id;sensor_type;location;lat;lon;timestamp;pressure;altitude;pressure_sealevel;temperature;humidity
4586;BME280;2305;50.118;8.952;2022-12-07T00:01:50;100728.19;;;4.47;100.00
4586;BME280;2305;50.118;8.952;2022-12-07T00:04:19;100725.66;;;4.46;100.00
4586;BME280;2305;50.118;8.952;2022-12-07T00:06:51;100709.31;;;4.42;100.00
4586;BME280;2305;50.118;8.952;2022-12-07T00:09:19;100715.38;;;4.43;100.00
4586;BME280;2305;50.118;8.952;2022-12-07T00:11:49;100720.75;;;4.40;100.00
4586;BME280;2305;50.118;8.952;2022-12-07T00:14:20;100721.75;;;4.37;100.00
4586;BME280;2305;50.118;8.952;2022-12-07T00:16:50;100712.00;;;4.41;100.00
4586;BME280;2305;50.118;8.952;2022-12-07T00:19:19;100709.31;;;4.42;100.00
4586;BME280;2305;50.118;8.952;2022-12-07T00:21:47;100711.00;;;4.43;100.00
4586;BME280;2305;50.118;8.952;2022-12-07T00:24:16;100710.63;;;4.34;100.00
4586;BME280;2305;50.118;8.952;2022-12-07T00:26:47;100706.03;;;4.39;100.00
4586;BME280;2305;50.118;8.952;2022-12-07T00:29:17;100704.78;;;4.46;100.00
4586;BME280;2305;50.118;8.952;2022-12-07T00:31:46;100697.66;;;4.49;100.00
4586;BME280;2305;50.118;8.952;2022-12-07T00:34:19;100691.44;;;4.52;100.00
4586;BME280;2305;50.118;8.952;2022-12-07T00:36:49;100689.59;;;4.54;100.00
4586;BME280;2305;50.118;8.952;2022-12-07T00:39:17;100690.50;;;4.53;100.00
4586;BME280;2305;50.118;8.952;2022-12-07T00:41:45;100682.75;;;4.51;100.00
4586;BME280;2305;50.118;8.952;2022-12-07T00:44:13;100677.84;;;4.45;100.00
4586;BME280;2305;50.118;8.952;2022-12-07T00:46:42;100674.41;;;4.45;100.00
4586;BME280;2305;50.118;8.952;2022-12-07T00:49:12;100678.94;;;4.41;100.00
4586;BME280;2305;50.118;8.952;2022-12-07T00:51:42;100683.06;;;4.45;100.00
4586;BME280;2305;50.118;8.952;2022-12-07T00:54:11;100680.31;;;4.48;100.00
4586;BME280;2305;50.118;8.952;2022-12-07T00:56:41;100678.41;;;4.52;100.00
4586;BME280;2305;50.118;8.952;2022-12-07T00:59:12;100675.84;;;4.50;100.00
4586;BME280;2305;50.118;8.952;2022-12-07T01:01:42;100668.84;;;4.51;100.00
4586;BME280;2305;50.118;8.952;2022-12-07T01:04:11;100673.25;;;4.50;100.00
4586;BME280;2305;50.118;8.952;2022-12-07T01:06:42;100674.41;;;4.45;100.00
4586;BME280;2305;50.118;8.952;2022-12-07T01:09:10;100672.56;;;4.47;100.00
4586;BME280;2305;50.118;8.952;2022-12-07T01:11:39;100673.41;;;4.47;100.00
4586;BME280;2305;50.118;8.952;2022-12-07T01:14:09;100669.78;;;4.50;100.00
4586;BME280;2305;50.118;8.952;2022-12-07T01:16:38;100663.63;;;4.51;100.00
4586;BME280;2305;50.118;8.952;2022-12-07T01:19:08;100679.38;;;4.49;100.00
4586;BME280;2305;50.118;8.952;2022-12-07T01:21:38;100667.34;;;4.47;100.00
4586;BME280;2305;50.118;8.952;2022-12-07T01:24:10;100664.72;;;4.47;100.00
4586;BME280;2305;50.118;8.952;2022-12-07T01:26:39;100667.09;;;4.51;100.00
4586;BME280;2305;50.118;8.952;2022-12-07T01:29:10;100661.28;;;4.46;100.00
4586;BME280;2305;50.118;8.952;2022-12-07T01:31:39;100663.06;;;4.46;100.00
4586;BME280;2305;50.118;8.952;2022-12-07T01:34:11;100661.69;;;4.39;100.00
4586;BME280;2305;50.118;8.952;2022-12-07T01:36:39;100662.06;;;4.31;100.00
4586;BME280;2305;50.118;8.952;2022-12-07T01:39:10;100653.78;;;4.23;100.00
4586;BME280;2305;50.118;8.952;2022-12-07T01:41:40;100658.16;;;4.23;100.00
4586;BME280;2305;50.118;8.952;2022-12-07T01:44:16;100659.69;;;4.27;100.00
4586;BME280;2305;50.118;8.952;2022-12-07T01:46:50;100668.50;;;4.24;100.00
4586;BME280;2305;50.118;8.952;2022-12-07T01:49:23;100668.38;;;4.28;100.00
4586;BME280;2305;50.118;8.952;2022-12-07T01:52:03;100668.88;;;4.34;100.00
4586;BME280;2305;50.118;8.952;2022-12-07T01:54:42;100671.19;;;4.40;100.00
4586;BME280;2305;50.118;8.952;2022-12-07T01:57:12;100676.34;;;4.41;100.00
4586;BME280;2305;50.118;8.952;2022-12-07T01:59:43;100669.19;;;4.45;100.00
4586;BME280;2305;50.118;8.952;2022-12-07T02:02:18;100664.22;;;4.40;100.00
4586;BME280;2305;50.118;8.952;2022-12-07T02:04:51;100670.88;;;4.46;100.00
4586;BME280;2305;50.118;8.952;2022-12-07T02:07:23;100662.38;;;4.42;100.00
4586;BME280;2305;50.118;8.952;2022-12-07T02:09:54;100644.78;;;4.46;100.00
4586;BME280;2305;50.118;8.952;2022-12-07T02:12:30;100650.84;;;4.46;100.00
4586;BME280;2305;50.118;8.952;2022-12-07T02:14:58;100656.75;;;4.50;100.00
4586;BME280;2305;50.118;8.952;2022-12-07T02:17:32;100654.22;;;4.48;100.00
4586;BME280;2305;50.118;8.952;2022-12-07T02:20:17;100652.63;;;4.46;100.00
4586;BME280;2305;50.118;8.952;2022-12-07T02:23:20;100641.94;;;4.50;100.00
4586;BME280;2305;50.118;8.952;2022-12-07T02:26:06;100641.09;;;4.50;100.00
4586;BME280;2305;50.118;8.952;2022-12-07T02:29:14;100628.38;;;4.44;100.00
4586;BME280;2305;50.118;8.952;2022-12-07T02:31:48;100627.53;;;4.43;100.00
4586;BME280;2305;50.118;8.952;2022-12-07T02:34:29;100631.88;;;4.43;100.00
4586;BME280;2305;50.118;8.952;2022-12-07T02:37:03;100629.13;;;4.46;100.00
4586;BME280;2305;50.118;8.952;2022-12-07T02:39:42;100629.28;;;4.43;100.00
4586;BME280;2305;50.118;8.952;2022-12-07T02:42:16;100629.72;;;4.51;100.00
4586;BME280;2305;50.118;8.952;2022-12-07T02:44:48;100622.50;;;4.56;100.00
4586;BME280;2305;50.118;8.952;2022-12-07T02:47:18;100616.22;;;4.60;100.00
4586;BME280;2305;50.118;8.952;2022-12-07T02:49:49;100620.34;;;4.64;100.00
4586;BME280;2305;50.118;8.952;2022-12-07T02:52:19;100617.16;;;4.59;100.00
4586;BME280;2305;50.118;8.952;2022-12-07T02:54:47;100612.81;;;4.58;100.00
4586;BME280;2305;50.118;8.952;2022-12-07T02:57:28;100619.91;;;4.56;100.00
4586;BME280;2305;50.118;8.952;2022-12-07T03:00:07;100616.13;;;4.61;100.00
4586;BME280;2305;50.118;8.952;2022-12-07T03:02:45;100618.66;;;4.63;100.00
4586;BME280;2305;50.118;8.952;2022-12-07T03:05:37;100617.84;;;4.78;100.00
4586;BME280;2305;50.118;8.952;2022-12-07T03:08:15;100615.66;;;4.70;100.00
4586;BME280;2305;50.118;8.952;2022-12-07T03:10:54;100613.13;;;4.69;100.00
4586;BME280;2305;50.118;8.952;2022-12-07T03:13:28;100616.34;;;4.74;100.00
4586;BME280;2305;50.118;8.952;2022-12-07T03:16:09;100612.72;;;4.76;100.00
4586;BME280;2305;50.118;8.952;2022-12-07T03:18:49;100610.00;;;4.78;100.00
4586;BME280;2305;50.118;8.952;2022-12-07T03:21:23;100601.59;;;4.88;100.00
4586;BME280;2305;50.118;8.952;2022-12-07T03:23:55;100611.69;;;4.79;100.00
4586;BME280;2305;50.118;8.952;2022-12-07T03:26:29;100608.25;;;4.78;100.00
4586;BME280;2305;50.118;8.952;2022-12-07T03:29:00;100611.38;;;4.85;100.00
4586;BME280;2305;50.118;8.952;2022-12-07T03:31:37;100609.19;;;4.77;100.00
4586;BME280;2305;50.118;8.952;2022-12-07T03:34:10;100604.22;;;4.73;100.00
4586;BME280;2305;50.118;8.952;2022-12-07T03:36:43;100606.66;;;4.76;100.00
4586;BME280;2305;50.118;8.952;2022-12-07T03:39:20;100609.56;;;4.70;100.00
4586;BME280;2305;50.118;8.952;2022-12-07T03:41:51;100603.28;;;4.74;100.00
4586;BME280;2305;50.118;8.952;2022-12-07T03:44:21;100602.69;;;4.69;100.00
4586;BME280;2305;50.118;8.952;2022-12-07T03:47:01;100602.50;;;4.72;100.00
4586;BME280;2305;50.118;8.952;2022-12-07T03:49:37;100597.97;;;4.75;100.00
4586;BME280;2305;50.118;8.952;2022-12-07T03:52:16;100597.81;;;4.78;100.00
4586;BME280;2305;50.118;8.952;2022-12-07T03:54:53;100598.81;;;4.76;100.00
4586;BME280;2305;50.118;8.952;2022-12-07T03:57:25;100597.28;;;4.72;100.00
4586;BME280;2305;50.118;8.952;2022-12-07T03:59:55;100599.75;;;4.75;100.00
4586;BME280;2305;50.118;8.952;2022-12-07T04:02:27;100586.69;;;4.75;100.00
4586;BME280;2305;50.118;8.952;2022-12-07T04:04:57;100595.13;;;4.80;100.00
4586;BME280;2305;50.118;8.952;2022-12-07T04:07:28;100584.84;;;4.77;100.00
4586;BME280;2305;50.118;8.952;2022-12-07T04:09:57;100590.66;;;4.82;100.00
4586;BME280;2305;50.118;8.952;2022-12-07T04:12:26;100584.88;;;4.92;100.00
4586;BME280;2305;50.118;8.952;2022-12-07T04:14:55;100586.19;;;4.84;100.00
4586;BME280;2305;50.118;8.952;2022-12-07T04:17:24;100583.50;;;4.85;100.00
4586;BME280;2305;50.118;8.952;2022-12-07T04:19:53;100575.94;;;4.81;100.00
4586;BME280;2305;50.118;8.952;2022-12-07T04:22:22;100582.75;;;4.83;100.00
4586;BME280;2305;50.118;8.952;2022-12-07T04:24:50;100580.97;;;4.84;100.00
4586;BME280;2305;50.118;8.952;2022-12-07T04:27:20;100580.81;;;4.87;100.00
4586;BME280;2305;50.118;8.952;2022-12-07T04:29:49;100580.56;;;4.91;100.00
4586;BME280;2305;50.118;8.952;2022-12-07T04:32:17;100586.03;;;4.87;100.00
4586;BME280;2305;50.118;8.952;2022-12-07T04:34:46;100580.47;;;4.93;100.00
4586;BME280;2305;50.118;8.952;2022-12-07T04:37:22;100590.91;;;4.93;100.00
4586;BME280;2305;50.118;8.952;2022-12-07T04:39:50;100585.69;;;4.93;100.00
4586;BME280;2305;50.118;8.952;2022-12-07T04:42:18;100583.00;;;4.94;100.00
4586;BME280;2305;50.118;8.952;2022-12-07T04:44:51;100587.47;;;4.92;100.00
4586;BME280;2305;50.118;8.952;2022-12-07T04:47:19;100595.44;;;4.89;100.00
4586;BME280;2305;50.118;8.952;2022-12-07T04:49:52;100587.47;;;4.92;100.00
4586;BME280;2305;50.118;8.952;2022-12-07T04:52:22;100583.84;;;4.95;100.00
4586;BME280;2305;50.118;8.952;2022-12-07T04:54:50;100584.44;;;5.00;100.00
4586;BME280;2305;50.118;8.952;2022-12-07T04:57:18;100583.00;;;4.94;100.00
4586;BME280;2305;50.118;8.952;2022-12-07T04:59:48;100570.56;;;4.99;100.00
4586;BME280;2305;50.118;8.952;2022-12-07T05:02:19;100576.59;;;5.00;100.00
4586;BME280;2305;50.118;8.952;2022-12-07T05:04:47;100575.25;;;4.93;100.00
4586;BME280;2305;50.118;8.952;2022-12-07T05:07:16;100569.19;;;4.92;100.00
4586;BME280;2305;50.118;8.952;2022-12-07T05:09:46;100574.09;;;4.98;100.00
4586;BME280;2305;50.118;8.952;2022-12-07T05:12:14;100571.63;;;4.95;100.00
4586;BME280;2305;50.118;8.952;2022-12-07T05:14:42;100568.19;;;4.95;100.00
4586;BME280;2305;50.118;8.952;2022-12-07T05:17:10;100582.41;;;4.89;100.00
4586;BME280;2305;50.118;8.952;2022-12-07T05:19:40;100579.72;;;4.91;100.00
4586;BME280;2305;50.118;8.952;2022-12-07T05:22:10;100580.56;;;4.91;100.00
4586;BME280;2305;50.118;8.952;2022-12-07T05:24:41;100578.69;;;4.78;100.00
4586;BME280;2305;50.118;8.952;2022-12-07T05:27:13;100585.00;;;4.89;100.00
4586;BME280;2305;50.118;8.952;2022-12-07T05:29:42;100586.38;;;4.96;100.00
4586;BME280;2305;50.118;8.952;2022-12-07T05:32:14;100576.44;;;5.03;100.00
4586;BME280;2305;50.118;8.952;2022-12-07T05:34:43;100582.34;;;5.06;100.00
4586;BME280;2305;50.118;8.952;2022-12-07T05:37:11;100576.38;;;5.04;100.00
4586;BME280;2305;50.118;8.952;2022-12-07T05:39:39;100577.94;;;5.07;100.00
4586;BME280;2305;50.118;8.952;2022-12-07T05:42:10;100577.38;;;5.02;100.00
4586;BME280;2305;50.118;8.952;2022-12-07T05:44:45;100575.69;;;5.01;100.00
4586;BME280;2305;50.118;8.952;2022-12-07T05:47:15;100578.38;;;4.99;100.00
4586;BME280;2305;50.118;8.952;2022-12-07T05:49:43;100578.72;;;4.93;100.00
4586;BME280;2305;50.118;8.952;2022-12-07T05:52:12;100580.38;;;4.94;100.00
4586;BME280;2305;50.118;8.952;2022-12-07T05:54:40;100585.28;;;5.00;100.00
4586;BME280;2305;50.118;8.952;2022-12-07T05:57:12;100585.03;;;5.05;100.00
4586;BME280;2305;50.118;8.952;2022-12-07T05:59:41;100588.38;;;5.07;100.00
4586;BME280;2305;50.118;8.952;2022-12-07T06:02:12;100588.56;;;5.04;100.00
4586;BME280;2305;50.118;8.952;2022-12-07T06:04:46;100579.47;;;5.11;100.00
4586;BME280;2305;50.118;8.952;2022-12-07T06:07:17;100582.84;;;5.13;100.00
4586;BME280;2305;50.118;8.952;2022-12-07T06:09:47;100584.50;;;5.14;100.00
4586;BME280;2305;50.118;8.952;2022-12-07T06:12:16;100587.22;;;5.12;100.00
4586;BME280;2305;50.118;8.952;2022-12-07T06:15:03;100581.81;;;5.15;100.00
4586;BME280;2305;50.118;8.952;2022-12-07T06:17:35;100582.50;;;5.19;100.00
4586;BME280;2305;50.118;8.952;2022-12-07T06:20:05;100579.72;;;5.22;100.00
4586;BME280;2305;50.118;8.952;2022-12-07T06:22:34;100578.03;;;5.21;100.00
4586;BME280;2305;50.118;8.952;2022-12-07T06:25:08;100580.16;;;5.30;100.00
4586;BME280;2305;50.118;8.952;2022-12-07T06:27:36;100578.53;;;5.27;100.00
4586;BME280;2305;50.118;8.952;2022-12-07T06:30:08;100576.00;;;5.26;100.00
4586;BME280;2305;50.118;8.952;2022-12-07T06:32:37;100578.63;;;5.26;100.00
4586;BME280;2305;50.118;8.952;2022-12-07T06:35:06;100582.66;;;5.31;100.00
4586;BME280;2305;50.118;8.952;2022-12-07T06:37:35;100579.97;;;5.33;100.00
4586;BME280;2305;50.118;8.952;2022-12-07T06:40:06;100575.41;;;5.36;100.00
4586;BME280;2305;50.118;8.952;2022-12-07T06:42:35;100581.06;;;5.29;100.00
4586;BME280;2305;50.118;8.952;2022-12-07T06:45:04;100577.44;;;5.31;100.00
4586;BME280;2305;50.118;8.952;2022-12-07T06:47:32;100581.16;;;5.27;100.00
4586;BME280;2305;50.118;8.952;2022-12-07T06:50:15;100584.84;;;5.23;100.00
4586;BME280;2305;50.118;8.952;2022-12-07T06:52:44;100584.19;;;5.20;100.00
4586;BME280;2305;50.118;8.952;2022-12-07T06:55:12;100588.31;;;5.24;100.00
4586;BME280;2305;50.118;8.952;2022-12-07T06:57:41;100588.22;;;5.25;100.00
4586;BME280;2305;50.118;8.952;2022-12-07T07:00:10;100590.75;;;5.27;100.00
4586;BME280;2305;50.118;8.952;2022-12-07T07:02:49;100592.44;;;5.28;100.00
4586;BME280;2305;50.118;8.952;2022-12-07T07:05:21;100594.97;;;5.29;100.00
4586;BME280;2305;50.118;8.952;2022-12-07T07:07:49;100593.69;;;5.36;100.00
4586;BME280;2305;50.118;8.952;2022-12-07T07:10:39;100591.28;;;5.18;100.00
4586;BME280;2305;50.118;8.952;2022-12-07T07:13:08;100601.53;;;5.21;100.00
4586;BME280;2305;50.118;8.952;2022-12-07T07:15:38;100599.84;;;5.20;100.00
4586;BME280;2305;50.118;8.952;2022-12-07T07:18:08;100607.09;;;5.15;100.00
4586;BME280;2305;50.118;8.952;2022-12-07T07:20:41;100610.88;;;5.09;100.00
4586;BME280;2305;50.118;8.952;2022-12-07T07:23:10;100611.50;;;5.14;100.00
4586;BME280;2305;50.118;8.952;2022-12-07T07:25:40;100610.63;;;5.14;100.00
4586;BME280;2305;50.118;8.952;2022-12-07T07:28:08;100608.63;;;5.19;100.00
4586;BME280;2305;50.118;8.952;2022-12-07T07:30:36;100606.50;;;5.25;100.00
4586;BME280;2305;50.118;8.952;2022-12-07T07:33:05;100615.25;;;5.24;100.00
4586;BME280;2305;50.118;8.952;2022-12-07T07:35:36;100608.44;;;5.22;100.00
4586;BME280;2305;50.118;8.952;2022-12-07T07:38:09;100611.81;;;5.24;100.00
4586;BME280;2305;50.118;8.952;2022-12-07T07:40:37;100613.66;;;5.22;100.00
4586;BME280;2305;50.118;8.952;2022-12-07T07:43:08;100605.06;;;5.20;100.00
4586;BME280;2305;50.118;8.952;2022-12-07T07:45:39;100608.09;;;5.28;100.00
4586;BME280;2305;50.118;8.952;2022-12-07T07:48:08;100607.84;;;5.32;100.00
4586;BME280;2305;50.118;8.952;2022-12-07T07:50:36;100614.53;;;5.38;100.00
4586;BME280;2305;50.118;8.952;2022-12-07T07:53:04;100609.78;;;5.44;100.00
4586;BME280;2305;50.118;8.952;2022-12-07T07:55:34;100609.28;;;5.38;100.00
4586;BME280;2305;50.118;8.952;2022-12-07T07:58:05;100613.00;;;5.34;100.00
4586;BME280;2305;50.118;8.952;2022-12-07T08:00:36;100607.44;;;5.40;100.00
4586;BME280;2305;50.118;8.952;2022-12-07T08:03:04;100607.25;;;5.43;100.00
4586;BME280;2305;50.118;8.952;2022-12-07T08:05:32;100605.06;;;5.51;100.00
4586;BME280;2305;50.118;8.952;2022-12-07T08:08:00;100603.22;;;5.53;100.00
4586;BME280;2305;50.118;8.952;2022-12-07T08:10:28;100598.66;;;5.56;100.00
4586;BME280;2305;50.118;8.952;2022-12-07T08:13:00;100603.53;;;5.47;100.00
4586;BME280;2305;50.118;8.952;2022-12-07T08:15:42;100605.41;;;5.45;100.00
4586;BME280;2305;50.118;8.952;2022-12-07T08:18:14;100602.88;;;5.43;100.00
4586;BME280;2305;50.118;8.952;2022-12-07T08:20:44;100604.81;;;5.40;100.00
4586;BME280;2305;50.118;8.952;2022-12-07T08:23:12;100609.28;;;5.38;100.00
4586;BME280;2305;50.118;8.952;2022-12-07T08:25:43;100617.78;;;5.57;100.00
4586;BME280;2305;50.118;8.952;2022-12-07T08:28:15;100605.56;;;5.57;100.00
4586;BME280;2305;50.118;8.952;2022-12-07T08:30:46;100613.97;;;5.62;100.00
4586;BME280;2305;50.118;8.952;2022-12-07T08:33:14;100613.81;;;5.65;100.00
4586;BME280;2305;50.118;8.952;2022-12-07T08:35:43;100614.53;;;5.67;100.00
4586;BME280;2305;50.118;8.952;2022-12-07T08:38:11;100607.97;;;5.76;100.00
4586;BME280;2305;50.118;8.952;2022-12-07T08:40:43;100607.56;;;5.68;100.00
4586;BME280;2305;50.118;8.952;2022-12-07T08:43:12;100614.97;;;5.75;100.00
4586;BME280;2305;50.118;8.952;2022-12-07T08:45:41;100610.84;;;5.71;100.00
4586;BME280;2305;50.118;8.952;2022-12-07T08:48:13;100615.47;;;5.66;100.00
4586;BME280;2305;50.118;8.952;2022-12-07T08:50:45;100617.34;;;5.64;100.00
4586;BME280;2305;50.118;8.952;2022-12-07T08:53:15;100623.16;;;5.69;100.00
4586;BME280;2305;50.118;8.952;2022-12-07T08:55:44;100623.84;;;5.57;100.00
4586;BME280;2305;50.118;8.952;2022-12-07T08:58:13;100620.97;;;5.46;100.00
4586;BME280;2305;50.118;8.952;2022-12-07T09:00:43;100622.34;;;5.38;100.00
4586;BME280;2305;50.118;8.952;2022-12-07T09:03:11;100623.03;;;5.41;100.00
4586;BME280;2305;50.118;8.952;2022-12-07T09:05:42;100623.69;;;5.45;100.00
4586;BME280;2305;50.118;8.952;2022-12-07T09:08:11;100618.63;;;5.42;100.00
4586;BME280;2305;50.118;8.952;2022-12-07T09:10:40;100622.78;;;5.46;100.00
4586;BME280;2305;50.118;8.952;2022-12-07T09:13:09;100620.50;;;5.40;100.00
4586;BME280;2305;50.118;8.952;2022-12-07T09:15:38;100617.97;;;5.38;100.00
4586;BME280;2305;50.118;8.952;2022-12-07T09:18:10;100620.41;;;5.41;100.00
4586;BME280;2305;50.118;8.952;2022-12-07T09:20:38;100619.16;;;5.48;100.00
4586;BME280;2305;50.118;8.952;2022-12-07T09:23:08;100623.78;;;5.59;100.00
4586;BME280;2305;50.118;8.952;2022-12-07T09:25:36;100618.94;;;5.67;100.00
4586;BME280;2305;50.118;8.952;2022-12-07T09:28:05;100621.97;;;5.75;100.00
4586;BME280;2305;50.118;8.952;2022-12-07T09:30:34;100622.41;;;5.83;100.00
4586;BME280;2305;50.118;8.952;2022-12-07T09:33:27;100634.00;;;5.93;100.00
4586;BME280;2305;50.118;8.952;2022-12-07T09:35:56;100622.00;;;6.04;100.00
4586;BME280;2305;50.118;8.952;2022-12-07T09:38:26;100621.28;;;6.16;100.00
4586;BME280;2305;50.118;8.952;2022-12-07T09:41:04;100620.84;;;6.24;100.00
4586;BME280;2305;50.118;8.952;2022-12-07T09:43:35;100616.28;;;6.27;100.00
4586;BME280;2305;50.118;8.952;2022-12-07T09:46:11;100609.47;;;6.39;100.00
4586;BME280;2305;50.118;8.952;2022-12-07T09:48:43;100614.41;;;6.43;100.00
4586;BME280;2305;50.118;8.952;2022-12-07T09:51:14;100615.44;;;6.41;100.00
4586;BME280;2305;50.118;8.952;2022-12-07T09:53:52;100614.63;;;6.54;100.00
4586;BME280;2305;50.118;8.952;2022-12-07T09:56:21;100606.84;;;6.67;100.00
4586;BME280;2305;50.118;8.952;2022-12-07T09:58:58;100600.03;;;6.64;100.00
4586;BME280;2305;50.118;8.952;2022-12-07T10:01:29;100601.91;;;6.76;100.00
4586;BME280;2305;50.118;8.952;2022-12-07T10:04:08;100608.53;;;6.96;100.00
4586;BME280;2305;50.118;8.952;2022-12-07T10:06:39;100601.22;;;7.01;100.00
4586;BME280;2305;50.118;8.952;2022-12-07T10:09:10;100596.00;;;7.01;100.00
4586;BME280;2305;50.118;8.952;2022-12-07T10:11:58;100593.91;;;7.06;100.00
4586;BME280;2305;50.118;8.952;2022-12-07T10:14:27;100595.50;;;6.94;100.00
4586;BME280;2305;50.118;8.952;2022-12-07T10:17:35;100597.47;;;6.91;100.00
4586;BME280;2305;50.118;8.952;2022-12-07T10:20:17;100597.38;;;7.06;100.00
4586;BME280;2305;50.118;8.952;2022-12-07T10:22:59;100599.25;;;7.04;100.00
4586;BME280;2305;50.118;8.952;2022-12-07T10:25:30;100600.88;;;6.93;100.00
4586;BME280;2305;50.118;8.952;2022-12-07T10:28:17;100589.34;;;6.95;100.00
4586;BME280;2305;50.118;8.952;2022-12-07T10:30:51;100590.34;;;7.07;100.00
4586;BME280;2305;50.118;8.952;2022-12-07T10:33:28;100590.44;;;7.19;100.00
4586;BME280;2305;50.118;8.952;2022-12-07T10:36:00;100590.59;;;7.16;100.00
4586;BME280;2305;50.118;8.952;2022-12-07T10:38:29;100583.75;;;7.28;100.00
4586;BME280;2305;50.118;8.952;2022-12-07T10:41:05;100594.88;;;7.31;100.00
4586;BME280;2305;50.118;8.952;2022-12-07T10:43:41;100584.13;;;7.36;100.00
4586;BME280;2305;50.118;8.952;2022-12-07T10:46:43;100586.97;;;7.45;100.00
4586;BME280;2305;50.118;8.952;2022-12-07T10:52:32;100561.19;;;7.91;100.00
4586;BME280;2305;50.118;8.952;2022-12-07T10:55:18;100549.06;;;8.15;100.00
4586;BME280;2305;50.118;8.952;2022-12-07T10:58:00;100551.50;;;8.43;100.00
4586;BME280;2305;50.118;8.952;2022-12-07T11:00:37;100553.16;;;8.56;100.00
4586;BME280;2305;50.118;8.952;2022-12-07T11:03:23;100542.56;;;8.58;100.00
4586;BME280;2305;50.118;8.952;2022-12-07T11:06:00;100540.97;;;8.68;100.00
4586;BME280;2305;50.118;8.952;2022-12-07T11:08:43;100544.09;;;8.73;100.00
4586;BME280;2305;50.118;8.952;2022-12-07T11:11:14;100543.25;;;8.72;100.00
4586;BME280;2305;50.118;8.952;2022-12-07T11:13:49;100540.84;;;8.69;100.00
4586;BME280;2305;50.118;8.952;2022-12-07T11:16:32;100546.13;;;8.44;100.00
4586;BME280;2305;50.118;8.952;2022-12-07T11:19:24;100542.06;;;8.28;100.00
4586;BME280;2305;50.118;8.952;2022-12-07T11:22:06;100529.09;;;8.12;100.00
4586;BME280;2305;50.118;8.952;2022-12-07T11:24:49;100532.78;;;7.97;100.00
4586;BME280;2305;50.118;8.952;2022-12-07T11:27:25;100530.56;;;7.91;100.00
4586;BME280;2305;50.118;8.952;2022-12-07T11:30:16;100520.16;;;7.77;100.00
4586;BME280;2305;50.118;8.952;2022-12-07T11:33:06;100517.53;;;7.90;100.00
4586;BME280;2305;50.118;8.952;2022-12-07T11:35:40;100511.75;;;7.85;100.00
4586;BME280;2305;50.118;8.952;2022-12-07T11:38:17;100510.16;;;7.70;100.00
4586;BME280;2305;50.118;8.952;2022-12-07T11:40:59;100521.19;;;7.75;100.00
4586;BME280;2305;50.118;8.952;2022-12-07T11:43:51;100529.28;;;7.72;100.00
4586;BME280;2305;50.118;8.952;2022-12-07T11:46:44;100502.25;;;7.96;100.00
4586;BME280;2305;50.118;8.952;2022-12-07T11:49:20;100512.09;;;8.18;100.00
4586;BME280;2305;50.118;8.952;2022-12-07T11:51:53;100510.31;;;8.43;100.00
4586;BME280;2305;50.118;8.952;2022-12-07T11:54:27;100503.66;;;8.63;100.00
4586;BME280;2305;50.118;8.952;2022-12-07T11:57:02;100491.88;;;8.81;100.00
4586;BME280;2305;50.118;8.952;2022-12-07T11:59:36;100491.34;;;8.76;100.00
4586;BME280;2305;50.118;8.952;2022-12-07T12:02:13;100492.19;;;8.76;100.00
4586;BME280;2305;50.118;8.952;2022-12-07T12:04:49;100488.13;;;8.60;100.00
4586;BME280;2305;50.118;8.952;2022-12-07T12:07:27;100487.59;;;8.55;100.00
4586;BME280;2305;50.118;8.952;2022-12-07T12:10:19;100475.25;;;8.44;100.00
4586;BME280;2305;50.118;8.952;2022-12-07T12:13:17;100487.84;;;8.27;100.00
4586;BME280;2305;50.118;8.952;2022-12-07T12:16:23;100483.22;;;8.18;100.00
4586;BME280;2305;50.118;8.952;2022-12-07T12:19:13;100476.31;;;8.04;100.00
4586;BME280;2305;50.118;8.952;2022-12-07T12:21:49;100478.00;;;7.93;100.00
4586;BME280;2305;50.118;8.952;2022-12-07T12:24:27;100474.31;;;7.83;100.00
4586;BME280;2305;50.118;8.952;2022-12-07T12:27:01;100471.59;;;7.72;100.00
4586;BME280;2305;50.118;8.952;2022-12-07T12:29:34;100472.63;;;7.82;100.00
4586;BME280;2305;50.118;8.952;2022-12-07T12:32:13;100476.09;;;7.95;100.00
4586;BME280;2305;50.118;8.952;2022-12-07T12:34:59;100468.97;;;7.97;100.00
4586;BME280;2305;50.118;8.952;2022-12-07T12:37:42;100473.47;;;8.07;100.00
4586;BME280;2305;50.118;8.952;2022-12-07T12:40:43;100463.69;;;8.09;100.00
4586;BME280;2305;50.118;8.952;2022-12-07T12:46:53;100460.75;;;8.01;100.00
4586;BME280;2305;50.118;8.952;2022-12-07T12:49:42;100460.25;;;7.96;100.00
4586;BME280;2305;50.118;8.952;2022-12-07T12:55:47;100453.66;;;8.03;100.00
4586;BME280;2305;50.118;8.952;2022-12-07T12:58:44;100455.81;;;8.09;100.00
4586;BME280;2305;50.118;8.952;2022-12-07T13:01:41;100447.25;;;8.20;100.00
4586;BME280;2305;50.118;8.952;2022-12-07T13:04:50;100443.03;;;8.17;100.00
4586;BME280;2305;50.118;8.952;2022-12-07T13:07:49;100443.34;;;8.00;100.00
4586;BME280;2305;50.118;8.952;2022-12-07T13:10:33;100436.22;;;7.90;100.00
4586;BME280;2305;50.118;8.952;2022-12-07T13:13:34;100444.31;;;7.87;100.00
4586;BME280;2305;50.118;8.952;2022-12-07T13:16:38;100444.09;;;7.90;100.00
4586;BME280;2305;50.118;8.952;2022-12-07T13:22:42;100439.34;;;7.70;100.00
4586;BME280;2305;50.118;8.952;2022-12-07T13:25:17;100445.97;;;7.63;100.00
4586;BME280;2305;50.118;8.952;2022-12-07T13:27:54;100455.41;;;7.53;100.00
4586;BME280;2305;50.118;8.952;2022-12-07T13:30:23;100460.31;;;7.45;100.00
4586;BME280;2305;50.118;8.952;2022-12-07T13:32:55;100476.66;;;7.36;100.00
4586;BME280;2305;50.118;8.952;2022-12-07T13:35:33;100468.88;;;7.22;100.00
4586;BME280;2305;50.118;8.952;2022-12-07T13:38:05;100475.38;;;7.02;100.00
4586;BME280;2305;50.118;8.952;2022-12-07T13:40:34;100459.22;;;6.96;100.00
4586;BME280;2305;50.118;8.952;2022-12-07T13:43:05;100464.84;;;6.90;100.00
4586;BME280;2305;50.118;8.952;2022-12-07T13:45:41;100461.25;;;6.78;100.00
4586;BME280;2305;50.118;8.952;2022-12-07T13:48:21;100461.44;;;6.75;100.00
4586;BME280;2305;50.118;8.952;2022-12-07T13:50:53;100457.91;;;6.76;100.00
4586;BME280;2305;50.118;8.952;2022-12-07T13:53:25;100455.06;;;6.79;100.00
4586;BME280;2305;50.118;8.952;2022-12-07T13:56:01;100457.84;;;6.90;100.00
4586;BME280;2305;50.118;8.952;2022-12-07T13:58:30;100448.53;;;7.25;100.00
4586;BME280;2305;50.118;8.952;2022-12-07T14:01:00;100440.72;;;7.50;100.00